sensor_id;sensor_type;location;lat;lon;timestamp;temperature;humidity
10443;DHT22;5269;51.146;16.986;2024-03-22T00:00:18;10.80;1.00
10443;DHT22;5269;51.146;16.986;2024-03-22T00:02:45;10.80;1.00
10443;DHT22;5269;51.146;16.986;2024-03-22T00:05:15;10.80;1.00
10443;DHT22;5269;51.146;16.986;2024-03-22T00:07:44;10.80;1.00
10443;DHT22;5269;51.146;16.986;2024-03-22T00:10:11;10.90;1.00
10443;DHT22;5269;51.146;16.986;2024-03-22T00:12:38;10.80;1.00
10443;DHT22;5269;51.146;16.986;2024-03-22T00:15:08;10.70;1.00
10443;DHT22;5269;51.146;16.986;2024-03-22T00:17:36;10.70;1.00
10443;DHT22;5269;51.146;16.986;2024-03-22T00:20:04;10.70;1.00
10443;DHT22;5269;51.146;16.986;2024-03-22T00:22:34;10.60;1.00
10443;DHT22;5269;51.146;16.986;2024-03-22T00:25:02;10.50;99.90
10443;DHT22;5269;51.146;16.986;2024-03-22T00:27:29;10.50;99.90
10443;DHT22;5269;51.146;16.986;2024-03-22T00:30:02;10.50;99.90
10443;DHT22;5269;51.146;16.986;2024-03-22T00:32:30;10.40;1.00
10443;DHT22;5269;51.146;16.986;2024-03-22T00:35:00;10.40;1.00
10443;DHT22;5269;51.146;16.986;2024-03-22T00:37:27;10.40;1.00
10443;DHT22;5269;51.146;16.986;2024-03-22T00:40:00;10.30;1.00
10443;DHT22;5269;51.146;16.986;2024-03-22T00:42:36;10.30;1.00
10443;DHT22;5269;51.146;16.986;2024-03-22T00:45:06;10.30;1.00
10443;DHT22;5269;51.146;16.986;2024-03-22T00:47:33;10.20;1.00
10443;DHT22;5269;51.146;16.986;2024-03-22T00:50:00;10.20;1.00
10443;DHT22;5269;51.146;16.986;2024-03-22T00:52:30;10.20;1.00
10443;DHT22;5269;51.146;16.986;2024-03-22T00:54:59;10.20;1.00
10443;DHT22;5269;51.146;16.986;2024-03-22T00:57:26;10.10;1.00
10443;DHT22;5269;51.146;16.986;2024-03-22T00:59:54;10.10;1.00
10443;DHT22;5269;51.146;16.986;2024-03-22T01:02:21;10.00;1.00
10443;DHT22;5269;51.146;16.986;2024-03-22T01:04:49;10.00;1.00
10443;DHT22;5269;51.146;16.986;2024-03-22T01:07:16;10.00;1.00
10443;DHT22;5269;51.146;16.986;2024-03-22T01:09:53;9.90;1.00
10443;DHT22;5269;51.146;16.986;2024-03-22T01:12:24;9.90;1.00
10443;DHT22;5269;51.146;16.986;2024-03-22T01:14:51;9.90;1.00
10443;DHT22;5269;51.146;16.986;2024-03-22T01:17:21;9.80;1.00
10443;DHT22;5269;51.146;16.986;2024-03-22T01:19:49;9.80;1.00
10443;DHT22;5269;51.146;16.986;2024-03-22T01:28:30;9.70;1.00
10443;DHT22;5269;51.146;16.986;2024-03-22T01:30:59;9.60;1.00
10443;DHT22;5269;51.146;16.986;2024-03-22T01:33:29;9.70;1.00
10443;DHT22;5269;51.146;16.986;2024-03-22T01:35:56;9.60;1.00
10443;DHT22;5269;51.146;16.986;2024-03-22T01:38:24;9.50;1.00
10443;DHT22;5269;51.146;16.986;2024-03-22T01:44:50;9.50;1.00
10443;DHT22;5269;51.146;16.986;2024-03-22T01:47:19;9.40;1.00
10443;DHT22;5269;51.146;16.986;2024-03-22T01:49:47;9.30;78.70
10443;DHT22;5269;51.146;16.986;2024-03-22T01:52:15;9.30;99.90
10443;DHT22;5269;51.146;16.986;2024-03-22T01:54:44;9.30;99.90
10443;DHT22;5269;51.146;16.986;2024-03-22T01:57:12;9.20;99.90
10443;DHT22;5269;51.146;16.986;2024-03-22T02:06:02;9.10;1.00
10443;DHT22;5269;51.146;16.986;2024-03-22T02:08:30;9.10;1.00
10443;DHT22;5269;51.146;16.986;2024-03-22T02:10:58;9.10;1.00
10443;DHT22;5269;51.146;16.986;2024-03-22T02:13:27;9.00;99.90
10443;DHT22;5269;51.146;16.986;2024-03-22T02:15:56;9.00;99.90
10443;DHT22;5269;51.146;16.986;2024-03-22T02:18:27;9.00;99.90
10443;DHT22;5269;51.146;16.986;2024-03-22T02:21:04;9.00;99.90
10443;DHT22;5269;51.146;16.986;2024-03-22T02:23:35;9.00;99.90
10443;DHT22;5269;51.146;16.986;2024-03-22T02:26:04;9.00;99.90
10443;DHT22;5269;51.146;16.986;2024-03-22T02:28:33;9.00;99.90
10443;DHT22;5269;51.146;16.986;2024-03-22T02:31:02;9.00;1.00
10443;DHT22;5269;51.146;16.986;2024-03-22T02:33:31;9.10;1.00
10443;DHT22;5269;51.146;16.986;2024-03-22T02:36:06;9.20;1.00
10443;DHT22;5269;51.146;16.986;2024-03-22T02:41:17;9.10;1.00
10443;DHT22;5269;51.146;16.986;2024-03-22T02:43:44;9.10;1.00
10443;DHT22;5269;51.146;16.986;2024-03-22T02:46:11;9.00;1.00
10443;DHT22;5269;51.146;16.986;2024-03-22T02:48:38;9.00;40.20
10443;DHT22;5269;51.146;16.986;2024-03-22T02:51:13;9.00;99.90
10443;DHT22;5269;51.146;16.986;2024-03-22T02:53:41;9.00;1.00
10443;DHT22;5269;51.146;16.986;2024-03-22T02:56:10;8.90;1.00
10443;DHT22;5269;51.146;16.986;2024-03-22T03:02:31;8.90;99.90
10443;DHT22;5269;51.146;16.986;2024-03-22T03:05:02;8.90;1.00
10443;DHT22;5269;51.146;16.986;2024-03-22T03:07:32;8.80;99.90
10443;DHT22;5269;51.146;16.986;2024-03-22T03:10:00;8.70;99.90
10443;DHT22;5269;51.146;16.986;2024-03-22T03:12:27;8.60;99.90
10443;DHT22;5269;51.146;16.986;2024-03-22T03:14:56;8.60;99.90
10443;DHT22;5269;51.146;16.986;2024-03-22T03:21:19;8.50;99.90
10443;DHT22;5269;51.146;16.986;2024-03-22T03:23:47;8.50;99.90
10443;DHT22;5269;51.146;16.986;2024-03-22T03:26:17;8.40;99.90
10443;DHT22;5269;51.146;16.986;2024-03-22T03:28:44;8.30;99.90
10443;DHT22;5269;51.146;16.986;2024-03-22T03:31:23;8.40;99.90
10443;DHT22;5269;51.146;16.986;2024-03-22T03:33:50;8.30;99.90
10443;DHT22;5269;51.146;16.986;2024-03-22T03:40:38;8.40;99.90
10443;DHT22;5269;51.146;16.986;2024-03-22T03:43:05;8.40;99.90
10443;DHT22;5269;51.146;16.986;2024-03-22T03:45:32;8.40;99.90
10443;DHT22;5269;51.146;16.986;2024-03-22T03:47:59;8.40;99.90
10443;DHT22;5269;51.146;16.986;2024-03-22T03:50:26;8.40;99.90
10443;DHT22;5269;51.146;16.986;2024-03-22T03:52:53;8.50;99.90
10443;DHT22;5269;51.146;16.986;2024-03-22T03:55:21;8.50;99.90
10443;DHT22;5269;51.146;16.986;2024-03-22T03:57:52;8.50;99.90
10443;DHT22;5269;51.146;16.986;2024-03-22T04:00:25;8.50;99.90
10443;DHT22;5269;51.146;16.986;2024-03-22T04:02:52;8.50;99.90
10443;DHT22;5269;51.146;16.986;2024-03-22T04:05:19;8.50;99.90
10443;DHT22;5269;51.146;16.986;2024-03-22T04:07:47;8.50;99.90
10443;DHT22;5269;51.146;16.986;2024-03-22T04:10:14;8.60;99.90
10443;DHT22;5269;51.146;16.986;2024-03-22T04:12:42;8.50;99.90
10443;DHT22;5269;51.146;16.986;2024-03-22T04:15:12;8.60;99.90
10443;DHT22;5269;51.146;16.986;2024-03-22T04:17:44;8.50;99.90
10443;DHT22;5269;51.146;16.986;2024-03-22T04:20:11;8.60;99.90
10443;DHT22;5269;51.146;16.986;2024-03-22T04:22:41;8.60;99.90
10443;DHT22;5269;51.146;16.986;2024-03-22T04:25:25;8.60;99.90
10443;DHT22;5269;51.146;16.986;2024-03-22T04:27:53;8.60;99.90
10443;DHT22;5269;51.146;16.986;2024-03-22T04:30:23;8.60;99.90
10443;DHT22;5269;51.146;16.986;2024-03-22T04:32:52;8.60;99.90
10443;DHT22;5269;51.146;16.986;2024-03-22T04:35:19;8.50;99.90
10443;DHT22;5269;51.146;16.986;2024-03-22T04:37:46;8.60;99.90
10443;DHT22;5269;51.146;16.986;2024-03-22T04:40:14;8.60;99.90
10443;DHT22;5269;51.146;16.986;2024-03-22T04:42:41;8.60;99.90
10443;DHT22;5269;51.146;16.986;2024-03-22T04:45:09;8.60;99.90
10443;DHT22;5269;51.146;16.986;2024-03-22T04:47:40;8.60;99.90
10443;DHT22;5269;51.146;16.986;2024-03-22T04:50:10;8.60;99.90
10443;DHT22;5269;51.146;16.986;2024-03-22T04:52:40;8.60;99.90
10443;DHT22;5269;51.146;16.986;2024-03-22T04:55:21;8.60;99.90
10443;DHT22;5269;51.146;16.986;2024-03-22T04:57:51;8.60;99.90
10443;DHT22;5269;51.146;16.986;2024-03-22T05:00:19;8.60;99.90
10443;DHT22;5269;51.146;16.986;2024-03-22T05:02:49;8.60;99.90
10443;DHT22;5269;51.146;16.986;2024-03-22T05:05:16;8.60;99.90
10443;DHT22;5269;51.146;16.986;2024-03-22T05:07:45;8.50;99.90
10443;DHT22;5269;51.146;16.986;2024-03-22T05:10:13;8.50;99.90
10443;DHT22;5269;51.146;16.986;2024-03-22T05:12:40;8.50;99.90
10443;DHT22;5269;51.146;16.986;2024-03-22T05:15:08;8.50;99.90
10443;DHT22;5269;51.146;16.986;2024-03-22T05:17:35;8.50;99.90
10443;DHT22;5269;51.146;16.986;2024-03-22T05:20:06;8.50;99.90
10443;DHT22;5269;51.146;16.986;2024-03-22T05:22:36;8.60;99.90
10443;DHT22;5269;51.146;16.986;2024-03-22T05:25:04;8.50;99.90
10443;DHT22;5269;51.146;16.986;2024-03-22T05:27:32;8.40;99.90
10443;DHT22;5269;51.146;16.986;2024-03-22T05:30:08;8.50;99.90
10443;DHT22;5269;51.146;16.986;2024-03-22T05:32:38;8.50;99.90
10443;DHT22;5269;51.146;16.986;2024-03-22T05:35:08;8.40;99.90
10443;DHT22;5269;51.146;16.986;2024-03-22T05:37:35;8.30;99.90
10443;DHT22;5269;51.146;16.986;2024-03-22T05:40:02;8.30;99.90
10443;DHT22;5269;51.146;16.986;2024-03-22T05:42:30;8.20;99.90
10443;DHT22;5269;51.146;16.986;2024-03-22T05:44:59;8.30;99.90
10443;DHT22;5269;51.146;16.986;2024-03-22T05:47:56;8.20;99.90
10443;DHT22;5269;51.146;16.986;2024-03-22T05:50:36;8.20;99.90
10443;DHT22;5269;51.146;16.986;2024-03-22T05:58:50;8.10;99.90
10443;DHT22;5269;51.146;16.986;2024-03-22T06:01:20;8.20;99.90
10443;DHT22;5269;51.146;16.986;2024-03-22T06:03:52;8.20;99.90
10443;DHT22;5269;51.146;16.986;2024-03-22T06:06:22;8.40;99.90
10443;DHT22;5269;51.146;16.986;2024-03-22T06:08:51;8.20;99.90
10443;DHT22;5269;51.146;16.986;2024-03-22T06:17:34;8.20;99.90
10443;DHT22;5269;51.146;16.986;2024-03-22T06:20:07;8.30;99.90
10443;DHT22;5269;51.146;16.986;2024-03-22T06:23:03;8.20;99.90
10443;DHT22;5269;51.146;16.986;2024-03-22T06:25:32;8.20;99.90
10443;DHT22;5269;51.146;16.986;2024-03-22T06:27:58;8.20;99.90
10443;DHT22;5269;51.146;16.986;2024-03-22T06:36:45;8.30;99.90
10443;DHT22;5269;51.146;16.986;2024-03-22T06:39:14;8.30;99.90
10443;DHT22;5269;51.146;16.986;2024-03-22T06:41:41;8.30;99.90
10443;DHT22;5269;51.146;16.986;2024-03-22T06:44:09;8.40;99.90
10443;DHT22;5269;51.146;16.986;2024-03-22T06:46:39;8.40;99.90
10443;DHT22;5269;51.146;16.986;2024-03-22T06:49:10;8.50;99.90
10443;DHT22;5269;51.146;16.986;2024-03-22T06:51:39;8.50;99.90
10443;DHT22;5269;51.146;16.986;2024-03-22T06:54:06;8.50;99.90
10443;DHT22;5269;51.146;16.986;2024-03-22T06:56:36;8.60;99.90
10443;DHT22;5269;51.146;16.986;2024-03-22T06:59:02;8.60;99.90
10443;DHT22;5269;51.146;16.986;2024-03-22T07:01:43;8.60;99.90
10443;DHT22;5269;51.146;16.986;2024-03-22T07:04:10;8.60;99.90
10443;DHT22;5269;51.146;16.986;2024-03-22T07:06:52;8.70;99.90
10443;DHT22;5269;51.146;16.986;2024-03-22T07:09:19;8.70;99.90
10443;DHT22;5269;51.146;16.986;2024-03-22T07:11:48;8.70;99.90
10443;DHT22;5269;51.146;16.986;2024-03-22T07:14:15;8.70;99.90
10443;DHT22;5269;51.146;16.986;2024-03-22T07:16:42;8.80;99.90
10443;DHT22;5269;51.146;16.986;2024-03-22T07:19:10;8.90;99.90
10443;DHT22;5269;51.146;16.986;2024-03-22T07:21:39;8.90;99.90
10443;DHT22;5269;51.146;16.986;2024-03-22T07:24:06;8.90;99.90
10443;DHT22;5269;51.146;16.986;2024-03-22T07:26:34;9.00;99.90
10443;DHT22;5269;51.146;16.986;2024-03-22T07:29:04;8.90;99.90
10443;DHT22;5269;51.146;16.986;2024-03-22T07:31:33;8.80;99.90
10443;DHT22;5269;51.146;16.986;2024-03-22T07:34:00;8.90;99.90
10443;DHT22;5269;51.146;16.986;2024-03-22T07:36:27;9.00;99.90
10443;DHT22;5269;51.146;16.986;2024-03-22T07:39:02;9.00;99.90
10443;DHT22;5269;51.146;16.986;2024-03-22T07:41:30;9.00;99.90
10443;DHT22;5269;51.146;16.986;2024-03-22T07:43:57;8.90;99.90
10443;DHT22;5269;51.146;16.986;2024-03-22T07:46:28;8.90;99.90
10443;DHT22;5269;51.146;16.986;2024-03-22T07:48:58;8.90;99.90
10443;DHT22;5269;51.146;16.986;2024-03-22T07:51:26;9.10;99.90
10443;DHT22;5269;51.146;16.986;2024-03-22T07:53:53;9.00;99.90
10443;DHT22;5269;51.146;16.986;2024-03-22T07:56:23;9.10;99.90
10443;DHT22;5269;51.146;16.986;2024-03-22T07:58:52;9.00;99.90
10443;DHT22;5269;51.146;16.986;2024-03-22T08:01:19;9.00;99.90
10443;DHT22;5269;51.146;16.986;2024-03-22T08:03:52;9.20;99.90
10443;DHT22;5269;51.146;16.986;2024-03-22T08:06:23;9.60;99.90
10443;DHT22;5269;51.146;16.986;2024-03-22T08:08:51;9.70;61.10
10443;DHT22;5269;51.146;16.986;2024-03-22T08:13:58;9.80;1.00
10443;DHT22;5269;51.146;16.986;2024-03-22T08:16:29;9.90;1.00
10443;DHT22;5269;51.146;16.986;2024-03-22T08:18:59;9.80;1.00
10443;DHT22;5269;51.146;16.986;2024-03-22T08:21:27;10.10;1.00
10443;DHT22;5269;51.146;16.986;2024-03-22T08:23:54;10.00;99.90
10443;DHT22;5269;51.146;16.986;2024-03-22T08:30:12;10.20;99.90
10443;DHT22;5269;51.146;16.986;2024-03-22T08:32:42;10.40;1.00
10443;DHT22;5269;51.146;16.986;2024-03-22T08:35:16;10.50;1.00
10443;DHT22;5269;51.146;16.986;2024-03-22T08:37:43;10.70;99.90
10443;DHT22;5269;51.146;16.986;2024-03-22T08:40:12;10.90;99.90
10443;DHT22;5269;51.146;16.986;2024-03-22T08:42:40;10.70;99.90
10443;DHT22;5269;51.146;16.986;2024-03-22T08:49:05;10.50;34.80
10443;DHT22;5269;51.146;16.986;2024-03-22T08:51:35;10.90;1.00
10443;DHT22;5269;51.146;16.986;2024-03-22T08:54:02;11.00;99.90
10443;DHT22;5269;51.146;16.986;2024-03-22T08:56:30;10.90;1.00
10443;DHT22;5269;51.146;16.986;2024-03-22T08:58:58;10.80;34.20
10443;DHT22;5269;51.146;16.986;2024-03-22T09:01:25;11.10;1.00
10443;DHT22;5269;51.146;16.986;2024-03-22T09:03:54;11.30;1.00
10443;DHT22;5269;51.146;16.986;2024-03-22T09:09:31;11.10;99.90
10443;DHT22;5269;51.146;16.986;2024-03-22T09:11:58;11.10;99.90
10443;DHT22;5269;51.146;16.986;2024-03-22T09:14:30;11.20;99.90
10443;DHT22;5269;51.146;16.986;2024-03-22T09:16:58;11.20;99.90
10443;DHT22;5269;51.146;16.986;2024-03-22T09:19:27;11.30;99.90
10443;DHT22;5269;51.146;16.986;2024-03-22T09:21:55;11.30;99.90
10443;DHT22;5269;51.146;16.986;2024-03-22T09:30:32;11.50;99.90
10443;DHT22;5269;51.146;16.986;2024-03-22T09:33:13;11.50;1.00
10443;DHT22;5269;51.146;16.986;2024-03-22T09:35:40;11.60;1.00
10443;DHT22;5269;51.146;16.986;2024-03-22T09:38:10;11.40;1.00
10443;DHT22;5269;51.146;16.986;2024-03-22T09:40:47;11.60;99.90
10443;DHT22;5269;51.146;16.986;2024-03-22T09:47:02;11.30;99.90
10443;DHT22;5269;51.146;16.986;2024-03-22T09:49:29;11.30;99.90
10443;DHT22;5269;51.146;16.986;2024-03-22T09:54:45;11.30;99.90
10443;DHT22;5269;51.146;16.986;2024-03-22T09:57:15;11.30;1.00
10443;DHT22;5269;51.146;16.986;2024-03-22T09:59:44;11.50;1.00
10443;DHT22;5269;51.146;16.986;2024-03-22T10:08:48;11.30;52.70
10443;DHT22;5269;51.146;16.986;2024-03-22T10:11:19;11.40;1.00
10443;DHT22;5269;51.146;16.986;2024-03-22T10:13:50;11.50;99.90
10443;DHT22;5269;51.146;16.986;2024-03-22T10:16:18;11.90;1.00
10443;DHT22;5269;51.146;16.986;2024-03-22T10:19:16;11.90;1.00
10443;DHT22;5269;51.146;16.986;2024-03-22T10:27:31;12.20;99.90
10443;DHT22;5269;51.146;16.986;2024-03-22T10:47:37;12.00;99.90
10443;DHT22;5269;51.146;16.986;2024-03-22T10:50:28;12.30;99.90
10443;DHT22;5269;51.146;16.986;2024-03-22T10:53:04;12.60;1.00
10443;DHT22;5269;51.146;16.986;2024-03-22T11:04:56;12.90;99.90
10443;DHT22;5269;51.146;16.986;2024-03-22T11:07:59;13.00;99.90
10443;DHT22;5269;51.146;16.986;2024-03-22T11:14:14;13.60;92.30
10443;DHT22;5269;51.146;16.986;2024-03-22T11:16:54;13.60;1.00
10443;DHT22;5269;51.146;16.986;2024-03-22T11:26:05;13.90;1.00
10443;DHT22;5269;51.146;16.986;2024-03-22T11:29:46;14.20;1.00
10443;DHT22;5269;51.146;16.986;2024-03-22T11:32:21;14.30;1.00
10443;DHT22;5269;51.146;16.986;2024-03-22T11:34:54;14.30;1.00
10443;DHT22;5269;51.146;16.986;2024-03-22T11:40:46;13.70;1.00
10443;DHT22;5269;51.146;16.986;2024-03-22T11:46:16;14.80;1.00
10443;DHT22;5269;51.146;16.986;2024-03-22T11:48:56;14.20;1.00
10443;DHT22;5269;51.146;16.986;2024-03-22T11:51:32;14.30;1.00
10443;DHT22;5269;51.146;16.986;2024-03-22T11:54:35;14.10;1.00
10443;DHT22;5269;51.146;16.986;2024-03-22T12:23:15;14.30;1.00
10443;DHT22;5269;51.146;16.986;2024-03-22T12:26:03;14.30;1.00
10443;DHT22;5269;51.146;16.986;2024-03-22T12:28:42;14.20;1.00
10443;DHT22;5269;51.146;16.986;2024-03-22T12:31:20;14.70;1.00
10443;DHT22;5269;51.146;16.986;2024-03-22T12:33:50;14.50;1.00
10443;DHT22;5269;51.146;16.986;2024-03-22T12:39:40;15.10;1.00
10443;DHT22;5269;51.146;16.986;2024-03-22T12:42:07;14.50;1.00
10443;DHT22;5269;51.146;16.986;2024-03-22T12:44:34;14.40;1.00
10443;DHT22;5269;51.146;16.986;2024-03-22T12:47:06;14.30;1.00
10443;DHT22;5269;51.146;16.986;2024-03-22T12:49:34;14.00;1.00
10443;DHT22;5269;51.146;16.986;2024-03-22T12:52:00;14.10;1.00
10443;DHT22;5269;51.146;16.986;2024-03-22T12:54:27;14.20;1.00
10443;DHT22;5269;51.146;16.986;2024-03-22T12:57:00;14.30;1.00
10443;DHT22;5269;51.146;16.986;2024-03-22T12:59:27;14.50;1.00
10443;DHT22;5269;51.146;16.986;2024-03-22T13:01:54;14.70;1.00
10443;DHT22;5269;51.146;16.986;2024-03-22T13:04:21;14.50;1.00
10443;DHT22;5269;51.146;16.986;2024-03-22T13:06:50;14.70;1.00
10443;DHT22;5269;51.146;16.986;2024-03-22T13:09:20;14.50;1.00
10443;DHT22;5269;51.146;16.986;2024-03-22T13:11:47;14.40;1.00
10443;DHT22;5269;51.146;16.986;2024-03-22T13:14:17;14.50;1.00
10443;DHT22;5269;51.146;16.986;2024-03-22T13:16:46;14.80;1.00
10443;DHT22;5269;51.146;16.986;2024-03-22T13:21:40;15.30;1.00
10443;DHT22;5269;51.146;16.986;2024-03-22T13:24:07;14.90;1.00
10443;DHT22;5269;51.146;16.986;2024-03-22T13:26:34;15.10;1.00
10443;DHT22;5269;51.146;16.986;2024-03-22T13:31:34;15.20;1.00
10443;DHT22;5269;51.146;16.986;2024-03-22T13:34:01;15.10;1.00
10443;DHT22;5269;51.146;16.986;2024-03-22T13:36:29;15.30;1.00
10443;DHT22;5269;51.146;16.986;2024-03-22T13:38:56;15.70;1.00
10443;DHT22;5269;51.146;16.986;2024-03-22T13:41:23;15.20;99.90
10443;DHT22;5269;51.146;16.986;2024-03-22T13:43:50;15.20;1.00
10443;DHT22;5269;51.146;16.986;2024-03-22T13:46:17;15.20;1.00
10443;DHT22;5269;51.146;16.986;2024-03-22T13:48:48;15.10;1.00
10443;DHT22;5269;51.146;16.986;2024-03-22T13:51:15;15.30;99.90
10443;DHT22;5269;51.146;16.986;2024-03-22T13:53:42;15.40;99.90
10443;DHT22;5269;51.146;16.986;2024-03-22T13:56:10;15.50;99.90
10443;DHT22;5269;51.146;16.986;2024-03-22T13:58:37;15.30;99.90
10443;DHT22;5269;51.146;16.986;2024-03-22T14:01:04;15.30;99.90
10443;DHT22;5269;51.146;16.986;2024-03-22T14:03:32;15.20;99.90
10443;DHT22;5269;51.146;16.986;2024-03-22T14:06:02;15.30;99.90
10443;DHT22;5269;51.146;16.986;2024-03-22T14:08:29;15.10;99.90
10443;DHT22;5269;51.146;16.986;2024-03-22T14:10:57;15.30;99.90
10443;DHT22;5269;51.146;16.986;2024-03-22T14:13:24;15.10;99.90
10443;DHT22;5269;51.146;16.986;2024-03-22T14:15:51;15.30;99.90
10443;DHT22;5269;51.146;16.986;2024-03-22T14:18:20;15.30;99.90
10443;DHT22;5269;51.146;16.986;2024-03-22T14:20:47;15.40;99.90
10443;DHT22;5269;51.146;16.986;2024-03-22T14:23:17;15.60;99.90
10443;DHT22;5269;51.146;16.986;2024-03-22T14:25:45;15.90;1.00
10443;DHT22;5269;51.146;16.986;2024-03-22T14:28:13;16.00;1.00
10443;DHT22;5269;51.146;16.986;2024-03-22T14:30:40;15.90;1.00
10443;DHT22;5269;51.146;16.986;2024-03-22T14:33:07;15.70;1.00
10443;DHT22;5269;51.146;16.986;2024-03-22T14:35:34;15.60;1.00
10443;DHT22;5269;51.146;16.986;2024-03-22T14:38:02;15.40;1.00
10443;DHT22;5269;51.146;16.986;2024-03-22T14:40:31;15.30;1.00
10443;DHT22;5269;51.146;16.986;2024-03-22T14:43:01;15.40;1.00
10443;DHT22;5269;51.146;16.986;2024-03-22T14:45:28;15.40;1.00
10443;DHT22;5269;51.146;16.986;2024-03-22T14:47:55;15.40;1.00
10443;DHT22;5269;51.146;16.986;2024-03-22T14:50:22;15.40;99.90
10443;DHT22;5269;51.146;16.986;2024-03-22T14:52:49;15.20;99.90
10443;DHT22;5269;51.146;16.986;2024-03-22T14:55:17;15.30;99.90
10443;DHT22;5269;51.146;16.986;2024-03-22T14:57:47;15.30;1.00
10443;DHT22;5269;51.146;16.986;2024-03-22T15:00:15;15.30;1.00
10443;DHT22;5269;51.146;16.986;2024-03-22T15:02:42;15.40;1.00
10443;DHT22;5269;51.146;16.986;2024-03-22T15:05:09;15.20;1.00
10443;DHT22;5269;51.146;16.986;2024-03-22T15:07:36;15.20;1.00
10443;DHT22;5269;51.146;16.986;2024-03-22T15:10:04;15.00;99.90
10443;DHT22;5269;51.146;16.986;2024-03-22T15:12:31;14.70;99.90
10443;DHT22;5269;51.146;16.986;2024-03-22T15:15:01;14.70;99.90
10443;DHT22;5269;51.146;16.986;2024-03-22T15:17:28;14.50;99.90
10443;DHT22;5269;51.146;16.986;2024-03-22T15:19:55;14.50;99.90
10443;DHT22;5269;51.146;16.986;2024-03-22T15:22:22;14.70;99.90
10443;DHT22;5269;51.146;16.986;2024-03-22T15:24:49;14.50;99.90
10443;DHT22;5269;51.146;16.986;2024-03-22T15:27:20;14.30;99.90
10443;DHT22;5269;51.146;16.986;2024-03-22T15:29:47;14.30;1.00
10443;DHT22;5269;51.146;16.986;2024-03-22T15:32:17;14.40;1.00
10443;DHT22;5269;51.146;16.986;2024-03-22T15:34:44;14.40;1.00
10443;DHT22;5269;51.146;16.986;2024-03-22T15:37:13;14.30;1.00
10443;DHT22;5269;51.146;16.986;2024-03-22T15:39:40;14.20;1.00
10443;DHT22;5269;51.146;16.986;2024-03-22T15:42:07;14.20;1.00
10443;DHT22;5269;51.146;16.986;2024-03-22T15:44:34;14.20;1.00
10443;DHT22;5269;51.146;16.986;2024-03-22T15:47:01;14.10;1.00
10443;DHT22;5269;51.146;16.986;2024-03-22T15:49:31;14.30;1.00
10443;DHT22;5269;51.146;16.986;2024-03-22T15:51:58;14.00;1.00
10443;DHT22;5269;51.146;16.986;2024-03-22T15:54:25;14.00;1.00
10443;DHT22;5269;51.146;16.986;2024-03-22T15:56:52;14.00;1.00
10443;DHT22;5269;51.146;16.986;2024-03-22T15:59:20;13.90;1.00
10443;DHT22;5269;51.146;16.986;2024-03-22T16:01:57;14.00;1.00
10443;DHT22;5269;51.146;16.986;2024-03-22T16:04:24;13.80;1.00
10443;DHT22;5269;51.146;16.986;2024-03-22T16:06:54;13.90;1.00
10443;DHT22;5269;51.146;16.986;2024-03-22T16:09:21;13.90;1.00
10443;DHT22;5269;51.146;16.986;2024-03-22T16:11:48;13.80;1.00
10443;DHT22;5269;51.146;16.986;2024-03-22T16:14:15;13.80;1.00
10443;DHT22;5269;51.146;16.986;2024-03-22T16:16:42;13.90;1.00
10443;DHT22;5269;51.146;16.986;2024-03-22T16:19:10;13.90;1.00
10443;DHT22;5269;51.146;16.986;2024-03-22T16:21:37;14.00;1.00
10443;DHT22;5269;51.146;16.986;2024-03-22T16:24:08;14.00;1.00
10443;DHT22;5269;51.146;16.986;2024-03-22T16:26:35;14.00;1.00
10443;DHT22;5269;51.146;16.986;2024-03-22T16:29:05;13.90;1.00
10443;DHT22;5269;51.146;16.986;2024-03-22T16:31:34;13.80;1.00
10443;DHT22;5269;51.146;16.986;2024-03-22T16:34:01;13.80;1.00
10443;DHT22;5269;51.146;16.986;2024-03-22T16:36:28;13.70;1.00
10443;DHT22;5269;51.146;16.986;2024-03-22T16:38:55;13.70;1.00
10443;DHT22;5269;51.146;16.986;2024-03-22T16:41:25;13.80;1.00
10443;DHT22;5269;51.146;16.986;2024-03-22T16:43:53;13.70;1.00
10443;DHT22;5269;51.146;16.986;2024-03-22T16:46:20;13.70;1.00
10443;DHT22;5269;51.146;16.986;2024-03-22T16:48:47;13.70;1.00
10443;DHT22;5269;51.146;16.986;2024-03-22T16:51:14;13.80;1.00
10443;DHT22;5269;51.146;16.986;2024-03-22T16:53:41;13.60;1.00
10443;DHT22;5269;51.146;16.986;2024-03-22T16:56:08;13.50;1.00
10443;DHT22;5269;51.146;16.986;2024-03-22T16:58:38;13.50;1.00
10443;DHT22;5269;51.146;16.986;2024-03-22T17:01:05;13.50;1.00
10443;DHT22;5269;51.146;16.986;2024-03-22T17:03:33;13.50;1.00
10443;DHT22;5269;51.146;16.986;2024-03-22T17:06:01;13.40;1.00
10443;DHT22;5269;51.146;16.986;2024-03-22T17:08:28;13.40;1.00
10443;DHT22;5269;51.146;16.986;2024-03-22T17:10:55;13.40;1.00
10443;DHT22;5269;51.146;16.986;2024-03-22T17:13:22;13.30;1.00
10443;DHT22;5269;51.146;16.986;2024-03-22T17:15:52;13.40;1.00
10443;DHT22;5269;51.146;16.986;2024-03-22T17:18:19;13.40;1.00
10443;DHT22;5269;51.146;16.986;2024-03-22T17:20:46;13.40;1.00
10443;DHT22;5269;51.146;16.986;2024-03-22T17:23:14;13.40;1.00
10443;DHT22;5269;51.146;16.986;2024-03-22T17:25:42;13.40;1.00
10443;DHT22;5269;51.146;16.986;2024-03-22T17:28:09;13.40;1.00
10443;DHT22;5269;51.146;16.986;2024-03-22T17:30:37;13.40;1.00
10443;DHT22;5269;51.146;16.986;2024-03-22T17:33:07;13.30;99.90
10443;DHT22;5269;51.146;16.986;2024-03-22T17:35:34;13.40;99.90
10443;DHT22;5269;51.146;16.986;2024-03-22T17:38:01;13.40;1.00
10443;DHT22;5269;51.146;16.986;2024-03-22T17:40:28;12.90;99.90
10443;DHT22;5269;51.146;16.986;2024-03-22T17:42:55;13.40;99.90
10443;DHT22;5269;51.146;16.986;2024-03-22T17:45:26;13.30;99.90
10443;DHT22;5269;51.146;16.986;2024-03-22T17:47:53;13.40;99.90
10443;DHT22;5269;51.146;16.986;2024-03-22T17:50:22;13.30;99.90
10443;DHT22;5269;51.146;16.986;2024-03-22T17:52:49;13.40;99.90
10443;DHT22;5269;51.146;16.986;2024-03-22T17:55:16;13.40;1.00
10443;DHT22;5269;51.146;16.986;2024-03-22T17:57:44;13.40;1.00
10443;DHT22;5269;51.146;16.986;2024-03-22T18:00:12;13.40;1.00
10443;DHT22;5269;51.146;16.986;2024-03-22T18:02:39;13.40;1.00
10443;DHT22;5269;51.146;16.986;2024-03-22T18:05:07;13.30;1.00
10443;DHT22;5269;51.146;16.986;2024-03-22T18:07:36;13.30;1.00
10443;DHT22;5269;51.146;16.986;2024-03-22T18:10:06;13.30;1.00
10443;DHT22;5269;51.146;16.986;2024-03-22T18:12:36;13.20;1.00
10443;DHT22;5269;51.146;16.986;2024-03-22T18:15:04;13.20;1.00
10443;DHT22;5269;51.146;16.986;2024-03-22T18:17:33;13.20;1.00
10443;DHT22;5269;51.146;16.986;2024-03-22T18:20:00;13.20;1.00
10443;DHT22;5269;51.146;16.986;2024-03-22T18:22:27;13.20;1.00
10443;DHT22;5269;51.146;16.986;2024-03-22T18:24:58;13.20;1.00
10443;DHT22;5269;51.146;16.986;2024-03-22T18:27:25;13.20;1.00
10443;DHT22;5269;51.146;16.986;2024-03-22T18:29:52;13.20;1.00
10443;DHT22;5269;51.146;16.986;2024-03-22T18:32:20;13.10;1.00
10443;DHT22;5269;51.146;16.986;2024-03-22T18:34:47;13.10;1.00
10443;DHT22;5269;51.146;16.986;2024-03-22T18:37:16;13.10;1.00
10443;DHT22;5269;51.146;16.986;2024-03-22T18:39:43;13.20;1.00
10443;DHT22;5269;51.146;16.986;2024-03-22T18:42:13;13.20;1.00
10443;DHT22;5269;51.146;16.986;2024-03-22T18:45:00;13.20;1.00